Choska, Oklahoma
Current Conditions -  °F | °C
As of 7:43 PM on Friday 21 Nov 2014 (Local Time) from KRVS Reporting Station
Overcast Overcast  
Wind Chill: 53°   Ceiling: 900
Heat Index: 53°   Visibility: 10mi
Dew Point: 49°   Wind: 8mph
Humidity: 86%   Direction: 160°SSE
Pressure: 30.09"   Gusts: NA
Location:  35.977°N, 95.6229°W
Report Text: KRVS 220143Z 16007KT 10SM OVC009 12/09 A3009 RMK AO2 T01170094
Loading
Personal Weather Stations






























Interactive Weather Map New forecast layout! Learn more

10-Day Weather Forecast

Advertisements
Track Severe Weather on mobile